Time;durP1;ratioP1;P1;durP2;ratioP2;P2;SDS_P1;SDS_P2;PMS_P1;PMS_P2;Temp;Humidity;BMP_temperature;BMP_pressure;BME280_temperature;BME280_humidity;BME280_pressure;Samples;Min_cycle;Max_cycle;Signal;HPM_P1;HPM_P2
2021/12/20 00:00:54;;;;;;;0.73;0.55;;;2.10;99.90;;;;;;4971703;28;20035;-84
2021/12/20 00:03:20;;;;;;;0.30;0.30;;;2.20;99.90;;;;;;4973880;28;20035;-83
2021/12/20 00:05:46;;;;;;;0.43;0.43;;;2.10;99.90;;;;;;4973934;28;20353;-84
2021/12/20 00:08:12;;;;;;;1.63;0.85;;;2.10;99.90;;;;;;4970443;28;20034;-83
2021/12/20 00:10:37;;;;;;;0.20;0.20;;;2.10;99.90;;;;;;4971398;28;20033;-83
2021/12/20 00:13:03;;;;;;;0.22;0.22;;;2.10;99.90;;;;;;4974794;28;20043;-83
2021/12/20 00:15:29;;;;;;;0.30;0.30;;;2.00;99.90;;;;;;4975071;28;20511;-83
2021/12/20 00:17:54;;;;;;;0.40;0.30;;;2.00;99.90;;;;;;4973660;28;20031;-83
2021/12/20 00:20:21;;;;;;;0.20;0.20;;;2.00;99.90;;;;;;4974002;28;20031;-82
2021/12/20 00:22:46;;;;;;;2.92;1.38;;;2.00;99.90;;;;;;4970557;28;20030;-84
2021/12/20 00:25:12;;;;;;;0.30;0.30;;;1.90;99.90;;;;;;4972035;28;20075;-83
2021/12/20 00:27:38;;;;;;;0.32;0.32;;;2.00;99.90;;;;;;4980136;28;20031;-83
2021/12/20 00:30:05;;;;;;;0.40;0.40;;;2.00;99.90;;;;;;4973870;28;20039;-83
2021/12/20 00:32:31;;;;;;;3.55;1.08;;;2.00;99.90;;;;;;4971641;28;20038;-83
2021/12/20 00:34:57;;;;;;;0.20;0.20;;;1.80;99.90;;;;;;4978539;28;20051;-83
2021/12/20 00:40:20;;;;;;;0.68;0.68;;;1.90;99.90;;;;;;4973119;28;20540;-84
2021/12/20 00:42:48;;;;;;;0.47;0.32;;;1.90;99.90;;;;;;4977210;28;20521;-84
2021/12/20 00:45:14;;;;;;;0.20;0.20;;;1.90;99.90;;;;;;4973242;28;20099;-83
2021/12/20 00:47:41;;;;;;;0.63;0.63;;;1.90;99.90;;;;;;4971191;28;20122;-84
2021/12/20 00:50:08;;;;;;;0.73;0.40;;;1.90;99.90;;;;;;4977920;28;20069;-84
2021/12/20 00:52:34;;;;;;;3.67;0.80;;;1.90;99.90;;;;;;4983238;28;20035;-84
2021/12/20 00:55:00;;;;;;;0.20;0.20;;;1.80;99.90;;;;;;5004973;28;20093;-84
2021/12/20 00:57:25;;;;;;;0.30;0.30;;;1.90;99.90;;;;;;4991185;28;20065;-83
2021/12/20 00:59:51;;;;;;;4.65;0.60;;;1.90;99.90;;;;;;4990383;28;20292;-84
2021/12/20 01:02:17;;;;;;;0.20;0.20;;;1.80;99.90;;;;;;5004608;28;20037;-84
2021/12/20 01:04:43;;;;;;;3.03;0.95;;;1.80;99.90;;;;;;4993297;28;20262;-84
2021/12/20 01:07:08;;;;;;;1.15;1.05;;;1.80;99.90;;;;;;4990797;28;20041;-83
2021/12/20 01:09:34;;;;;;;0.20;0.20;;;1.90;99.90;;;;;;4989438;28;20037;-84
2021/12/20 01:12:06;;;;;;;0.85;0.65;;;1.80;99.90;;;;;;4989928;28;20068;-84
2021/12/20 01:14:35;;;;;;;0.20;0.20;;;1.90;99.90;;;;;;4990967;28;20054;-84
2021/12/20 01:17:05;;;;;;;0.30;0.30;;;1.80;99.90;;;;;;4990629;28;20401;-84
2021/12/20 01:19:38;;;;;;;6.70;0.50;;;1.80;99.90;;;;;;4991473;28;20430;-83
2021/12/20 01:22:05;;;;;;;0.20;0.20;;;1.80;99.90;;;;;;4989373;28;20031;-83
2021/12/20 01:24:31;;;;;;;0.20;0.20;;;1.80;99.90;;;;;;4989069;28;20045;-84
2021/12/20 01:26:57;;;;;;;0.40;0.40;;;1.80;99.90;;;;;;4990739;28;20033;-84
2021/12/20 01:29:23;;;;;;;0.20;0.20;;;1.80;99.90;;;;;;4988554;28;20057;-84
2021/12/20 01:31:49;;;;;;;0.20;0.20;;;1.80;99.90;;;;;;4991333;28;20072;-84
2021/12/20 01:34:15;;;;;;;0.20;0.20;;;1.80;99.90;;;;;;4991420;28;20869;-83
2021/12/20 01:36:41;;;;;;;0.47;0.30;;;1.80;99.90;;;;;;4987819;28;20041;-84
2021/12/20 01:39:07;;;;;;;0.20;0.20;;;1.80;99.90;;;;;;4990662;28;20030;-84
2021/12/20 01:41:38;;;;;;;0.20;0.20;;;1.80;99.90;;;;;;4990517;28;20033;-85
2021/12/20 01:44:04;;;;;;;0.50;0.40;;;1.80;99.90;;;;;;4989177;28;20112;-84
2021/12/20 01:46:30;;;;;;;0.25;0.20;;;1.80;99.90;;;;;;5005430;28;20034;-84
2021/12/20 01:48:56;;;;;;;0.20;0.20;;;1.80;99.90;;;;;;4991535;28;20052;-84
2021/12/20 01:53:58;;;;;;;0.20;0.20;;;1.80;99.90;;;;;;4990254;28;20034;-84
2021/12/20 01:56:24;;;;;;;0.20;0.20;;;1.80;99.90;;;;;;4990211;28;20530;-83
2021/12/20 01:58:50;;;;;;;1.67;0.60;;;1.80;99.90;;;;;;4993797;28;20117;-84
2021/12/20 02:03:46;;;;;;;0.22;0.22;;;1.80;99.90;;;;;;4986652;28;20035;-84
2021/12/20 02:06:27;;;;;;;0.20;0.20;;;1.80;99.90;;;;;;4983424;28;20130;-84
2021/12/20 02:08:54;;;;;;;0.30;0.30;;;1.80;99.90;;;;;;4978871;28;20069;-83
2021/12/20 02:11:21;;;;;;;0.43;0.40;;;1.80;99.90;;;;;;4974651;28;20042;-83
2021/12/20 02:13:48;;;;;;;0.17;0.17;;;1.90;99.90;;;;;;4976913;28;20035;-84
2021/12/20 02:16:14;;;;;;;0.20;0.20;;;1.80;99.90;;;;;;4973879;28;20038;-84
2021/12/20 02:18:40;;;;;;;0.30;0.30;;;1.80;99.90;;;;;;4965063;28;20034;-82
2021/12/20 02:21:06;;;;;;;0.20;0.20;;;1.80;99.90;;;;;;4984198;28;20035;-81
2021/12/20 02:23:32;;;;;;;0.20;0.20;;;1.80;99.90;;;;;;4992535;28;20045;-83
2021/12/20 02:25:59;;;;;;;0.68;0.60;;;1.70;99.90;;;;;;4991882;28;20034;-83
2021/12/20 02:28:26;;;;;;;0.20;0.20;;;1.80;99.90;;;;;;4994318;28;20377;-83
2021/12/20 02:36:55;;;;;;;0.38;0.28;;;1.80;99.90;;;;;;5000154;28;20026;-84
2021/12/20 02:38:55;;;;;;;0.10;0.10;;;1.80;99.90;;;;;;4992130;28;20034;-83
2021/12/20 02:41:27;;;;;;;0.20;0.20;;;1.80;99.90;;;;;;4994637;28;20390;-83
2021/12/20 02:43:56;;;;;;;0.30;0.30;;;1.70;99.90;;;;;;4994252;28;20568;-84
2021/12/20 02:48:55;;;;;;;0.40;0.22;;;1.70;99.90;;;;;;4994234;28;20093;-84
2021/12/20 02:51:24;;;;;;;0.20;0.20;;;1.70;99.90;;;;;;4993705;28;20800;-83
2021/12/20 02:53:50;;;;;;;1.23;0.90;;;1.70;99.90;;;;;;4994779;28;20033;-84
2021/12/20 02:56:16;;;;;;;0.20;0.20;;;1.70;99.90;;;;;;4995344;28;20030;-83
2021/12/20 02:58:42;;;;;;;0.80;0.32;;;1.70;99.90;;;;;;4994540;28;20068;-83
2021/12/20 03:01:08;;;;;;;0.20;0.20;;;1.80;99.90;;;;;;5006654;28;20041;-83
2021/12/20 03:03:34;;;;;;;0.50;0.50;;;1.70;99.90;;;;;;4993572;28;20122;-83
2021/12/20 03:06:06;;;;;;;0.20;0.20;;;1.70;99.90;;;;;;4992767;28;20133;-83
2021/12/20 03:08:32;;;;;;;0.30;0.30;;;1.70;99.90;;;;;;4990693;28;20429;-83
2021/12/20 03:10:57;;;;;;;0.73;0.50;;;1.70;99.90;;;;;;4991985;28;20034;-83
2021/12/20 03:13:23;;;;;;;0.20;0.20;;;1.70;99.90;;;;;;4989883;28;20492;-84
2021/12/20 03:15:49;;;;;;;0.43;0.30;;;1.60;99.90;;;;;;4993082;28;20100;-84
2021/12/20 03:18:14;;;;;;;1.48;0.60;;;1.70;99.90;;;;;;4992170;28;20041;-84
2021/12/20 03:20:41;;;;;;;3.92;0.70;;;1.60;99.90;;;;;;4992686;28;20037;-84
2021/12/20 03:23:07;;;;;;;3.33;1.67;;;1.70;99.90;;;;;;4991248;28;20038;-83
2021/12/20 03:25:32;;;;;;;0.20;0.20;;;1.60;99.90;;;;;;4991841;28;20293;-83
2021/12/20 03:27:58;;;;;;;0.93;0.50;;;1.60;99.90;;;;;;4998503;28;20033;-83
2021/12/20 03:30:25;;;;;;;0.20;0.20;;;1.50;99.90;;;;;;4992685;28;20029;-83
2021/12/20 03:32:51;;;;;;;0.30;0.30;;;1.60;99.90;;;;;;4999203;28;20034;-83
2021/12/20 03:35:16;;;;;;;0.28;0.25;;;1.60;99.90;;;;;;5006372;28;20057;-83
2021/12/20 03:37:43;;;;;;;8.50;0.77;;;1.60;99.90;;;;;;4986127;28;20029;-83
2021/12/20 03:40:09;;;;;;;0.25;0.25;;;1.60;99.90;;;;;;4990699;28;20528;-83
2021/12/20 03:42:36;;;;;;;0.40;0.40;;;1.50;99.90;;;;;;4990369;28;20030;-84
2021/12/20 03:45:02;;;;;;;0.63;0.30;;;1.60;99.90;;;;;;4991997;28;20054;-83
2021/12/20 03:47:28;;;;;;;0.30;0.30;;;1.60;99.90;;;;;;4990258;28;20060;-84
2021/12/20 03:49:53;;;;;;;0.47;0.47;;;1.50;99.90;;;;;;4992879;28;20038;-84
2021/12/20 03:52:19;;;;;;;0.20;0.20;;;1.50;99.90;;;;;;4999110;28;20595;-83
2021/12/20 03:54:45;;;;;;;0.40;0.40;;;1.50;99.90;;;;;;4990519;28;20053;-84
2021/12/20 03:57:10;;;;;;;0.90;0.30;;;1.50;99.90;;;;;;4992428;28;20065;-83
2021/12/20 03:59:36;;;;;;;2.65;1.23;;;1.50;99.90;;;;;;4992700;28;20034;-83
2021/12/20 04:02:02;;;;;;;0.60;0.40;;;1.50;99.90;;;;;;4988466;28;20132;-83
2021/12/20 04:04:28;;;;;;;1.27;0.68;;;1.50;99.90;;;;;;4990279;28;20560;-84
2021/12/20 04:06:53;;;;;;;0.90;0.77;;;1.40;99.90;;;;;;4993925;28;20032;-83
2021/12/20 04:09:19;;;;;;;0.90;0.77;;;1.50;99.90;;;;;;4993084;28;20069;-83
2021/12/20 04:11:45;;;;;;;0.38;0.38;;;1.50;99.90;;;;;;4991826;28;20034;-83
2021/12/20 04:14:10;;;;;;;0.30;0.30;;;1.50;99.90;;;;;;4991338;28;20085;-84
2021/12/20 04:16:39;;;;;;;0.73;0.52;;;1.40;99.90;;;;;;4990117;28;20045;-83
2021/12/20 04:19:04;;;;;;;0.47;0.40;;;1.40;99.90;;;;;;4994603;28;20038;-83
2021/12/20 04:21:30;;;;;;;0.40;0.30;;;1.40;99.90;;;;;;4990685;28;20032;-83
2021/12/20 04:23:56;;;;;;;0.30;0.30;;;1.40;99.90;;;;;;4993268;28;20053;-84
2021/12/20 04:26:22;;;;;;;4.68;0.40;;;1.30;99.90;;;;;;4991028;28;20060;-84
2021/12/20 04:28:48;;;;;;;0.38;0.30;;;1.30;99.90;;;;;;4993187;28;20034;-84
2021/12/20 04:31:13;;;;;;;0.30;0.30;;;1.20;99.90;;;;;;4989100;28;20034;-84
2021/12/20 04:33:39;;;;;;;0.82;0.70;;;1.30;99.90;;;;;;4996985;28;20037;-84
2021/12/20 04:36:05;;;;;;;0.22;0.22;;;1.30;99.90;;;;;;4991964;28;20030;-84
2021/12/20 04:38:31;;;;;;;0.20;0.20;;;1.30;99.90;;;;;;4990922;28;20061;-84
2021/12/20 04:40:58;;;;;;;0.35;0.30;;;1.30;99.90;;;;;;4993095;28;20034;-84
2021/12/20 04:43:23;;;;;;;0.20;0.20;;;1.30;99.90;;;;;;4998498;28;20112;-84
2021/12/20 04:45:49;;;;;;;0.20;0.20;;;1.30;99.90;;;;;;4986633;28;20140;-84
2021/12/20 04:48:15;;;;;;;0.32;0.30;;;1.30;99.90;;;;;;4993728;28;20501;-84
2021/12/20 04:50:40;;;;;;;0.30;0.30;;;1.30;99.90;;;;;;4991535;28;20639;-85
2021/12/20 04:53:06;;;;;;;0.30;0.30;;;1.30;99.90;;;;;;4991625;28;20481;-85
2021/12/20 04:55:33;;;;;;;0.25;0.25;;;1.20;99.90;;;;;;4989723;28;20034;-85
2021/12/20 04:58:00;;;;;;;0.43;0.38;;;1.20;99.90;;;;;;4992424;28;20079;-85
2021/12/20 05:00:30;;;;;;;0.20;0.20;;;1.30;99.90;;;;;;4987260;28;20034;-83
2021/12/20 05:02:56;;;;;;;0.68;0.52;;;1.40;99.90;;;;;;4993139;28;20117;-84
2021/12/20 05:05:23;;;;;;;0.30;0.30;;;1.40;99.90;;;;;;4989718;28;20031;-84
2021/12/20 05:07:49;;;;;;;0.45;0.45;;;1.40;99.90;;;;;;4991565;28;20030;-85
2021/12/20 05:10:26;;;;;;;3.65;0.60;;;1.40;99.90;;;;;;4987957;28;20405;-83
2021/12/20 05:12:56;;;;;;;1.20;0.82;;;1.40;99.90;;;;;;4982622;28;20101;-84
2021/12/20 05:15:23;;;;;;;0.28;0.28;;;1.30;99.90;;;;;;4973689;28;20054;-85
2021/12/20 05:17:49;;;;;;;1.13;0.45;;;1.30;99.90;;;;;;4991478;28;20787;-84
2021/12/20 05:20:15;;;;;;;0.40;0.30;;;1.30;99.90;;;;;;4988995;28;20041;-84
2021/12/20 05:22:41;;;;;;;0.20;0.20;;;1.20;99.90;;;;;;4990804;28;20046;-84
2021/12/20 05:25:07;;;;;;;0.30;0.30;;;1.20;99.90;;;;;;4988841;28;20072;-85
2021/12/20 05:27:33;;;;;;;0.28;0.28;;;1.10;99.90;;;;;;5005044;28;20049;-84
2021/12/20 05:29:59;;;;;;;1.55;0.98;;;1.20;99.90;;;;;;4990016;28;20066;-84
2021/12/20 05:32:25;;;;;;;0.20;0.20;;;1.20;99.90;;;;;;4989336;28;20589;-84
2021/12/20 05:34:51;;;;;;;0.95;0.50;;;1.10;99.90;;;;;;5008507;28;20344;-82
2021/12/20 05:37:17;;;;;;;0.20;0.20;;;1.10;99.90;;;;;;4994029;28;20053;-84
2021/12/20 05:39:44;;;;;;;0.65;0.65;;;1.20;99.90;;;;;;4992735;28;20169;-85
2021/12/20 05:42:10;;;;;;;0.20;0.20;;;1.20;99.90;;;;;;4993554;28;20113;-85
2021/12/20 05:44:36;;;;;;;0.20;0.20;;;1.20;99.90;;;;;;5006447;28;20053;-85
2021/12/20 05:47:01;;;;;;;0.47;0.30;;;1.20;99.90;;;;;;5001386;28;20034;-84
2021/12/20 05:49:27;;;;;;;0.20;0.20;;;1.10;99.90;;;;;;5001595;28;20034;-84
2021/12/20 05:51:53;;;;;;;4.50;0.40;;;1.20;99.90;;;;;;4983472;28;20060;-83
2021/12/20 05:54:18;;;;;;;1.02;0.52;;;1.10;99.90;;;;;;4991245;28;20026;-86
2021/12/20 05:56:44;;;;;;;0.20;0.20;;;1.20;99.90;;;;;;4995518;28;20034;-85
2021/12/20 05:59:09;;;;;;;0.65;0.45;;;1.10;99.90;;;;;;5007791;28;20026;-84
2021/12/20 06:01:35;;;;;;;0.28;0.25;;;1.10;99.90;;;;;;4992527;28;20366;-85
2021/12/20 06:04:04;;;;;;;0.50;0.40;;;1.20;99.90;;;;;;4992260;28;20096;-86
2021/12/20 06:06:31;;;;;;;0.40;0.30;;;1.10;99.90;;;;;;5000485;28;20492;-84
2021/12/20 06:09:00;;;;;;;;;;;1.20;99.90;;;;;;4994821;28;20033;-86
2021/12/20 06:11:26;;;;;;;0.28;0.28;;;1.10;99.90;;;;;;4992213;28;19909;-85
2021/12/20 06:13:52;;;;;;;0.35;0.35;;;1.20;99.90;;;;;;4991971;28;20951;-87
2021/12/20 06:16:18;;;;;;;0.40;0.40;;;1.10;99.90;;;;;;4993368;28;20039;-86
2021/12/20 06:18:44;;;;;;;0.52;0.40;;;1.10;99.90;;;;;;4993148;28;20034;-86
2021/12/20 06:21:10;;;;;;;0.20;0.20;;;1.10;99.90;;;;;;4993828;28;20030;-86
2021/12/20 06:23:35;;;;;;;0.20;0.20;;;1.10;99.90;;;;;;4991603;28;20434;-88
2021/12/20 06:26:01;;;;;;;0.30;0.30;;;1.10;99.90;;;;;;4994398;28;20042;-87
2021/12/20 06:28:28;;;;;;;0.30;0.30;;;1.10;99.90;;;;;;4992631;28;20035;-86
2021/12/20 06:30:53;;;;;;;0.35;0.35;;;1.10;99.90;;;;;;4995054;28;20031;-88
2021/12/20 06:33:19;;;;;;;0.30;0.30;;;1.10;99.90;;;;;;5001982;28;20093;-87
2021/12/20 06:35:46;;;;;;;0.30;0.30;;;1.10;99.90;;;;;;4993429;28;20597;-87
2021/12/20 06:38:18;;;;;;;0.43;0.40;;;1.10;99.90;;;;;;4994902;28;20034;-86
2021/12/20 06:40:44;;;;;;;0.95;0.50;;;1.10;99.90;;;;;;4994576;28;20530;-86
2021/12/20 06:43:10;;;;;;;0.57;0.45;;;1.10;99.90;;;;;;5008322;28;20129;-85
2021/12/20 06:45:35;;;;;;;0.40;0.30;;;1.10;99.90;;;;;;4990179;28;20153;-90
2021/12/20 06:48:01;;;;;;;0.30;0.30;;;1.10;99.90;;;;;;4993944;28;20045;-83
2021/12/20 06:50:26;;;;;;;1.45;0.85;;;1.00;99.90;;;;;;4993778;28;20040;-85
2021/12/20 06:52:52;;;;;;;0.30;0.30;;;1.10;99.90;;;;;;4996378;28;20133;-85
2021/12/20 06:55:18;;;;;;;2.40;1.30;;;1.00;99.90;;;;;;4993704;28;20037;-85
2021/12/20 06:57:43;;;;;;;0.20;0.20;;;1.00;99.90;;;;;;5007388;28;20053;-84
2021/12/20 07:00:09;;;;;;;1.33;0.75;;;0.90;99.90;;;;;;4993102;28;20034;-84
2021/12/20 07:02:35;;;;;;;0.57;0.30;;;1.00;99.90;;;;;;4994995;28;20033;-85
2021/12/20 07:05:00;;;;;;;0.50;0.47;;;1.00;99.90;;;;;;4996108;28;20482;-84
2021/12/20 07:07:28;;;;;;;0.90;0.30;;;1.00;99.90;;;;;;4996087;28;20034;-85
2021/12/20 07:09:53;;;;;;;0.20;0.20;;;1.00;99.90;;;;;;4994828;28;20026;-84
2021/12/20 07:12:19;;;;;;;0.43;0.35;;;1.00;99.90;;;;;;4993597;28;20053;-84
2021/12/20 07:14:49;;;;;;;0.63;0.40;;;0.90;99.90;;;;;;4993683;28;20038;-85
2021/12/20 07:17:14;;;;;;;0.40;0.40;;;1.00;99.90;;;;;;4993881;28;20514;-84
2021/12/20 07:19:43;;;;;;;0.52;0.30;;;1.00;99.90;;;;;;4997843;28;20034;-84
2021/12/20 07:22:09;;;;;;;1.38;0.35;;;1.00;99.90;;;;;;4994841;28;20069;-84
2021/12/20 07:24:34;;;;;;;0.30;0.30;;;1.00;99.90;;;;;;4994050;28;20485;-85
2021/12/20 07:27:00;;;;;;;0.35;0.35;;;1.00;99.90;;;;;;4995103;28;20572;-85
2021/12/20 07:29:26;;;;;;;0.30;0.30;;;1.00;99.90;;;;;;4995032;28;20030;-85
2021/12/20 07:31:51;;;;;;;0.52;0.40;;;0.90;99.90;;;;;;4992557;28;20026;-85
2021/12/20 07:34:19;;;;;;;0.22;0.22;;;1.00;99.90;;;;;;4998981;28;20181;-84
2021/12/20 07:36:50;;;;;;;0.40;0.22;;;0.90;99.90;;;;;;4988972;28;20093;-84
2021/12/20 07:39:16;;;;;;;0.30;0.30;;;1.00;99.90;;;;;;4992077;28;20721;-83
2021/12/20 07:41:42;;;;;;;0.22;0.22;;;1.00;99.90;;;;;;4992391;28;20120;-85
2021/12/20 07:44:07;;;;;;;0.20;0.20;;;1.00;99.90;;;;;;4993519;28;20065;-84
2021/12/20 07:46:33;;;;;;;0.50;0.50;;;1.00;99.90;;;;;;4992402;28;20513;-85
2021/12/20 07:49:00;;;;;;;0.43;0.30;;;1.00;99.90;;;;;;4991196;28;20034;-84
2021/12/20 07:51:25;;;;;;;1.70;0.45;;;1.10;99.90;;;;;;4991609;28;20125;-84
2021/12/20 07:53:51;;;;;;;0.20;0.20;;;1.00;99.90;;;;;;4990987;28;20751;-85
2021/12/20 07:56:17;;;;;;;0.20;0.20;;;1.00;99.90;;;;;;4988297;28;20040;-84
2021/12/20 07:58:43;;;;;;;0.20;0.20;;;1.00;99.90;;;;;;4993208;28;20324;-83
2021/12/20 08:01:10;;;;;;;0.55;0.40;;;1.10;99.90;;;;;;4992600;28;20045;-85
2021/12/20 08:03:37;;;;;;;0.40;0.30;;;1.20;99.90;;;;;;4999230;28;20040;-85
2021/12/20 08:06:03;;;;;;;1.02;0.57;;;1.20;99.90;;;;;;4991768;28;20351;-85
2021/12/20 08:08:30;;;;;;;0.30;0.30;;;1.20;99.90;;;;;;4991122;28;20053;-85
2021/12/20 08:10:56;;;;;;;2.05;0.28;;;1.10;99.90;;;;;;4992659;28;20501;-85
2021/12/20 08:13:21;;;;;;;0.68;0.52;;;1.10;99.90;;;;;;4982717;28;20994;-84
2021/12/20 08:15:47;;;;;;;0.45;0.30;;;1.20;99.90;;;;;;4988149;28;20118;-85
2021/12/20 08:18:13;;;;;;;0.30;0.30;;;1.30;99.90;;;;;;4992539;28;20038;-84
2021/12/20 08:20:39;;;;;;;0.40;0.40;;;1.30;99.90;;;;;;4991576;28;20038;-84
2021/12/20 08:23:04;;;;;;;0.30;0.30;;;1.30;99.90;;;;;;4990084;28;20034;-85
2021/12/20 08:25:30;;;;;;;3.20;1.13;;;1.30;99.90;;;;;;4991482;28;20057;-84
2021/12/20 08:27:56;;;;;;;0.55;0.50;;;1.40;99.90;;;;;;4992206;28;20049;-85
2021/12/20 08:30:22;;;;;;;0.45;0.40;;;1.40;99.90;;;;;;4991026;28;20061;-84
2021/12/20 08:32:48;;;;;;;1.10;0.50;;;1.40;99.90;;;;;;4993206;28;20030;-84
2021/12/20 08:35:15;;;;;;;0.63;0.45;;;1.50;99.90;;;;;;4990957;28;20031;-84
2021/12/20 08:37:41;;;;;;;0.20;0.20;;;1.80;99.90;;;;;;4989941;28;20030;-85
2021/12/20 08:40:11;;;;;;;1.73;1.35;;;1.70;99.90;;;;;;4992051;28;20096;-84
2021/12/20 08:42:41;;;;;;;0.40;0.30;;;1.60;99.90;;;;;;4991743;28;20034;-85
2021/12/20 08:45:07;;;;;;;0.30;0.30;;;1.60;99.90;;;;;;4992848;28;20469;-85
2021/12/20 08:47:33;;;;;;;0.38;0.30;;;1.70;99.90;;;;;;4992530;28;20084;-83
2021/12/20 08:50:00;;;;;;;0.75;0.50;;;1.60;99.90;;;;;;4995365;28;20026;-83
2021/12/20 08:52:27;;;;;;;0.30;0.30;;;1.70;99.90;;;;;;4990430;28;20038;-85
2021/12/20 08:54:53;;;;;;;0.77;0.33;;;1.60;99.90;;;;;;4992704;28;20374;-83
2021/12/20 08:57:18;;;;;;;0.30;0.30;;;1.70;99.90;;;;;;5006080;28;20092;-84
2021/12/20 08:59:44;;;;;;;0.32;0.30;;;1.70;99.90;;;;;;5005961;28;20029;-84
2021/12/20 09:02:10;;;;;;;0.32;0.30;;;1.70;99.90;;;;;;5007342;28;20026;-84
2021/12/20 09:04:37;;;;;;;0.43;0.30;;;1.70;99.90;;;;;;4993202;28;20508;-85
2021/12/20 09:07:04;;;;;;;1.15;0.38;;;1.80;99.90;;;;;;5005631;28;20034;-85
2021/12/20 09:09:36;;;;;;;0.30;0.30;;;1.90;99.90;;;;;;4994706;28;20073;-85
2021/12/20 09:12:02;;;;;;;0.50;0.40;;;1.80;99.90;;;;;;4985845;28;20411;-84
2021/12/20 09:14:28;;;;;;;0.50;0.30;;;1.90;99.90;;;;;;4994186;28;20092;-85
2021/12/20 09:16:54;;;;;;;0.82;0.70;;;1.90;99.90;;;;;;4994959;28;20034;-84
2021/12/20 09:19:19;;;;;;;1.40;0.82;;;2.00;99.90;;;;;;4997213;28;20037;-84
2021/12/20 09:21:48;;;;;;;1.08;0.45;;;2.00;99.90;;;;;;4995305;28;20125;-84
2021/12/20 09:24:14;;;;;;;0.43;0.35;;;1.90;99.90;;;;;;4994410;28;20371;-84
2021/12/20 09:26:39;;;;;;;1.25;0.80;;;2.00;99.90;;;;;;4995437;28;20093;-84
2021/12/20 09:29:05;;;;;;;0.20;0.20;;;2.00;99.90;;;;;;4992457;28;20659;-84
2021/12/20 09:31:31;;;;;;;0.22;0.22;;;1.90;99.90;;;;;;4993679;28;20625;-84
2021/12/20 09:33:58;;;;;;;0.20;0.20;;;2.10;99.90;;;;;;4995443;28;20544;-84
2021/12/20 09:36:28;;;;;;;0.65;0.40;;;2.60;99.90;;;;;;4994365;28;20774;-84
2021/12/20 09:38:55;;;;;;;0.38;0.30;;;2.40;99.90;;;;;;5001886;28;20536;-83
2021/12/20 09:41:59;;;;;;;0.75;0.40;;;2.30;99.90;;;;;;4994827;28;20049;-84
2021/12/20 09:44:08;;;;;;;0.45;0.38;;;2.30;99.90;;;;;;4994464;28;20053;-84
2021/12/20 09:46:34;;;;;;;0.40;0.30;;;2.50;99.90;;;;;;5006883;28;20045;-83
2021/12/20 09:49:02;;;;;;;3.17;0.43;;;2.40;99.90;;;;;;4993292;28;20855;-85
2021/12/20 09:51:28;;;;;;;2.33;1.05;;;2.60;99.90;;;;;;5000996;28;20042;-84
2021/12/20 09:53:57;;;;;;;0.40;0.30;;;2.70;99.90;;;;;;4993743;28;20206;-84
2021/12/20 09:56:24;;;;;;;0.52;0.50;;;2.60;99.90;;;;;;4999644;28;20405;-84
2021/12/20 09:58:53;;;;;;;3.53;0.95;;;2.70;99.90;;;;;;5010373;28;20031;-85
2021/12/20 10:01:21;;;;;;;1.52;0.68;;;2.80;99.90;;;;;;4978128;28;20085;-85
2021/12/20 10:03:47;;;;;;;0.63;0.55;;;2.70;99.90;;;;;;4982342;28;20039;-90
2021/12/20 10:06:13;;;;;;;0.73;0.40;;;2.70;99.90;;;;;;4972729;28;20142;-88
2021/12/20 10:08:49;;;;;;;0.73;0.50;;;2.80;99.90;;;;;;4986572;28;20039;-91
2021/12/20 10:11:26;;;;;;;1.10;0.30;;;2.90;99.90;;;;;;4979506;28;20034;-89
2021/12/20 10:14:12;;;;;;;0.30;0.30;;;2.90;99.90;;;;;;4970978;28;20042;-90
2021/12/20 10:16:40;;;;;;;0.60;0.30;;;2.90;99.90;;;;;;4978512;28;20499;-90
2021/12/20 10:19:26;;;;;;;0.57;0.30;;;3.00;99.90;;;;;;4976181;28;20135;-91
2021/12/20 10:21:51;;;;;;;0.30;0.30;;;2.90;99.90;;;;;;4973306;28;20912;-87
2021/12/20 10:24:35;;;;;;;0.52;0.47;;;3.00;99.90;;;;;;4975477;28;20031;-84
2021/12/20 10:27:02;;;;;;;0.60;0.40;;;3.00;99.90;;;;;;4981943;28;20027;-85
2021/12/20 10:29:27;;;;;;;3.37;1.77;;;3.10;99.90;;;;;;4975025;28;20038;-84
2021/12/20 10:31:53;;;;;;;0.38;0.30;;;3.10;99.90;;;;;;4982590;28;20246;-85
2021/12/20 10:34:31;;;;;;;0.68;0.40;;;3.20;99.90;;;;;;4974102;28;20114;-83
2021/12/20 10:36:58;;;;;;;0.93;0.32;;;3.20;99.90;;;;;;4972817;28;20035;-84
2021/12/20 10:39:46;;;;;;;0.75;0.55;;;3.50;99.90;;;;;;4975872;28;20042;-84
2021/12/20 10:42:16;;;;;;;0.60;0.43;;;4.10;99.90;;;;;;4989476;28;20506;-84
2021/12/20 10:44:42;;;;;;;0.32;0.30;;;4.50;99.90;;;;;;4974063;28;20035;-84
2021/12/20 10:47:22;;;;;;;0.35;0.28;;;4.60;99.90;;;;;;4975689;28;20042;-84
2021/12/20 10:49:48;;;;;;;3.08;1.23;;;4.50;99.90;;;;;;4973757;28;20084;-84
2021/12/20 10:52:26;;;;;;;0.43;0.30;;;4.40;99.90;;;;;;4975756;28;20482;-84
2021/12/20 10:54:51;;;;;;;0.43;0.30;;;4.10;99.90;;;;;;4970968;28;20038;-85
2021/12/20 10:57:26;;;;;;;0.22;0.20;;;4.20;99.90;;;;;;4974768;28;20035;-84
2021/12/20 11:00:17;;;;;;;0.50;0.20;;;4.50;99.90;;;;;;4975030;28;20034;-85
2021/12/20 11:03:19;;;;;;;0.40;0.30;;;5.20;99.90;;;;;;4993507;28;20056;-85
2021/12/20 11:06:04;;;;;;;0.50;0.30;;;4.90;99.90;;;;;;4990209;28;20147;-84
2021/12/20 11:11:21;;;;;;;5.28;0.93;;;4.10;99.90;;;;;;4975861;28;20451;-84
2021/12/20 11:13:47;;;;;;;0.47;0.47;;;4.00;99.90;;;;;;4971549;28;20034;-84
2021/12/20 11:16:30;;;;;;;0.47;0.30;;;4.00;99.90;;;;;;4990137;28;20494;-85
2021/12/20 11:19:07;;;;;;;0.22;0.20;;;4.00;99.90;;;;;;4974952;28;20038;-83
2021/12/20 11:21:35;;;;;;;2.65;0.40;;;4.20;99.90;;;;;;4978484;28;20033;-85
2021/12/20 11:24:01;;;;;;;1.73;0.95;;;3.90;99.90;;;;;;4974685;28;20035;-84
2021/12/20 11:26:27;;;;;;;0.55;0.30;;;4.10;99.90;;;;;;4982082;28;20339;-85
2021/12/20 11:28:54;;;;;;;0.20;0.20;;;4.00;99.90;;;;;;4975307;28;20038;-83
2021/12/20 11:31:20;;;;;;;0.73;0.38;;;3.80;99.90;;;;;;4972834;28;20139;-84
2021/12/20 11:33:46;;;;;;;0.65;0.30;;;3.80;99.90;;;;;;4980599;28;20129;-84
2021/12/20 11:36:12;;;;;;;3.72;0.40;;;3.90;99.90;;;;;;4974213;28;20042;-84
2021/12/20 11:38:39;;;;;;;0.68;0.38;;;3.90;99.90;;;;;;4975588;28;20498;-85
2021/12/20 11:41:05;;;;;;;1.55;0.30;;;3.60;99.90;;;;;;4971066;28;20042;-84
2021/12/20 11:43:33;;;;;;;0.30;0.20;;;3.70;99.90;;;;;;4972314;28;20058;-85
2021/12/20 11:46:00;;;;;;;;;;;4.60;99.90;;;;;;4976678;28;20055;-84
2021/12/20 11:48:28;;;;;;;0.43;0.25;;;5.00;99.90;;;;;;4971780;28;19914;-85
2021/12/20 11:50:58;;;;;;;0.47;0.40;;;5.00;99.90;;;;;;4987034;28;20101;-85
2021/12/20 11:53:24;;;;;;;0.20;0.20;;;4.60;99.90;;;;;;4980785;28;20034;-85
2021/12/20 11:55:53;;;;;;;0.38;0.20;;;4.60;99.90;;;;;;4975488;28;20051;-86
2021/12/20 11:58:27;;;;;;;0.60;0.50;;;4.90;99.90;;;;;;4976121;28;21140;-85
2021/12/20 12:00:55;;;;;;;1.00;0.50;;;4.70;99.90;;;;;;4984597;28;20030;-85
2021/12/20 12:03:28;;;;;;;;;;;4.60;99.90;;;;;;4993949;28;20573;-85
2021/12/20 12:06:01;;;;;;;1.25;0.77;;;5.20;99.90;;;;;;4988709;28;19947;-86
2021/12/20 12:08:39;;;;;;;0.25;0.20;;;5.50;99.90;;;;;;4971388;28;20438;-84
2021/12/20 12:11:05;;;;;;;0.13;0.13;;;5.40;99.90;;;;;;4979734;28;20068;-85
2021/12/20 12:13:44;;;;;;;3.60;0.55;;;5.60;99.90;;;;;;4999743;28;20054;-85
2021/12/20 12:16:26;;;;;;;0.65;0.30;;;5.40;99.90;;;;;;4988959;28;20038;-85
2021/12/20 12:18:53;;;;;;;0.38;0.25;;;5.00;99.90;;;;;;4991084;28;20038;-85
2021/12/20 12:21:31;;;;;;;0.65;0.40;;;4.80;99.90;;;;;;4973873;28;20059;-85
2021/12/20 12:24:00;;;;;;;0.88;0.30;;;4.60;99.90;;;;;;4974961;28;20964;-85
2021/12/20 12:26:41;;;;;;;0.57;0.40;;;4.50;99.90;;;;;;4974943;28;20038;-85
2021/12/20 12:29:18;;;;;;;2.55;0.40;;;4.40;99.90;;;;;;4979689;28;20033;-85
2021/12/20 12:31:57;;;;;;;;;;;4.40;99.90;;;;;;4986855;28;20034;-84
2021/12/20 12:34:45;;;;;;;0.20;0.20;;;4.40;99.90;;;;;;5005866;28;19921;-84
2021/12/20 12:37:16;;;;;;;;;;;4.50;99.90;;;;;;5003146;28;20634;-86
2021/12/20 12:39:42;;;;;;;0.22;0.22;;;4.40;99.90;;;;;;4986382;28;20005;-86
2021/12/20 12:42:08;;;;;;;1.05;0.68;;;4.20;99.90;;;;;;4989343;28;20389;-85
2021/12/20 12:44:34;;;;;;;0.65;0.40;;;4.20;99.90;;;;;;4991105;28;20038;-85
2021/12/20 12:47:13;;;;;;;3.90;0.50;;;4.20;99.90;;;;;;4997372;28;20541;-85
2021/12/20 12:49:44;;;;;;;0.82;0.20;;;4.10;99.90;;;;;;4988906;28;20385;-85
2021/12/20 12:52:21;;;;;;;2.42;0.40;;;4.00;99.90;;;;;;4990580;28;20342;-84
2021/12/20 12:55:04;;;;;;;1.05;0.50;;;4.00;99.90;;;;;;4988712;28;20030;-83
2021/12/20 12:57:35;;;;;;;0.68;0.35;;;4.00;99.90;;;;;;4996830;28;20265;-85
2021/12/20 13:00:07;;;;;;;1.23;0.52;;;4.00;99.90;;;;;;4994974;28;20034;-84
2021/12/20 13:02:38;;;;;;;0.73;0.40;;;4.10;99.90;;;;;;5004221;28;20447;-85
2021/12/20 13:05:07;;;;;;;1.00;0.65;;;4.10;99.90;;;;;;4978996;28;20035;-85
2021/12/20 13:07:52;;;;;;;0.60;0.30;;;4.20;99.90;;;;;;4970568;28;20130;-84
2021/12/20 13:10:40;;;;;;;0.82;0.50;;;4.10;99.90;;;;;;4964277;28;20042;-84
2021/12/20 13:16:04;;;;;;;0.65;0.28;;;4.00;99.90;;;;;;4965821;28;20109;-83
2021/12/20 13:18:36;;;;;;;1.70;0.35;;;4.10;99.90;;;;;;4969193;28;20035;-83
2021/12/20 13:21:04;;;;;;;6.25;0.85;;;4.10;99.90;;;;;;4975968;28;20027;-83
2021/12/20 13:23:30;;;;;;;1.40;0.50;;;3.90;99.90;;;;;;4997932;28;20030;-83